Flight Track Log - Related Links

Times and Time Zones

All times are in EDT time to prevent confusion due to time zone crossing. See the UAL4843 flight status page for this flight to view local times or setup timezone preferences in your user account.

Time Position Orientation Groundspeed Altitude Reporting Facility
EDT Latitude Longitude Course Direction KTS MPH feet Rate Location/Type
Wed 01:34:27 PM 42.9500 -78.7167 56° Northeast 118 136 1,400  Level Buffalo TRACON
Wed 01:35:28 PM 42.9667 -78.6833 56° Northeast 139 160 2,500 1,276 Climbing Buffalo TRACON
Wed 01:36:34 PM 43.0000 -78.6333 48° Northeast 167 192 4,100 1,479 Climbing Buffalo TRACON
Wed 01:37:50 PM 42.9747 -78.6025 138° Southeast 156 180 6,000 1,368 Climbing Cleveland Center
Wed 01:38:50 PM 42.9294 -78.6294 204° Southwest 149 171 7,200 1,150 Climbing Cleveland Center
Wed 01:39:50 PM 42.8839 -78.6592 206° Southwest 176 203 8,300 1,000 Climbing Cleveland Center
Wed 01:40:50 PM 42.8386 -78.6919 208° Southwest 194 223 9,200 950 Climbing Cleveland Center
Wed 01:41:50 PM 42.7892 -78.7189 202° Southwest 200 230 10,200 1,000 Climbing Cleveland Center
Wed 01:42:50 PM 42.7397 -78.7569 209° Southwest 194 223 11,200 950 Climbing Cleveland Center
Wed 01:43:50 PM 42.6861 -78.7925 206° Southwest 205 236 12,100 450 Climbing Cleveland Center
Wed 01:44:50 PM 42.6283 -78.8308 206° Southwest 221 254 12,100  Level Cleveland Center
Wed 01:45:50 PM 42.5642 -78.8719 205° Southwest 237 273 12,100  Level Cleveland Center
Wed 01:46:50 PM 42.4983 -78.9161 206° Southwest 251 289 12,100  Level Cleveland Center
Wed 01:47:50 PM 42.4406 -78.9711 215° Southwest 258 297 12,100  Level Cleveland Center
Wed 01:48:50 PM 42.4083 -79.0561 243° Southwest 252 290 12,100  Level Cleveland Center
Wed 01:49:50 PM 42.3742 -79.1414 242° Southwest 252 290 12,100  Level Cleveland Center
Wed 01:50:50 PM 42.3397 -79.2208 240° Southwest 252 290 12,100 -50 Level Cleveland Center
Wed 01:51:50 PM 42.3053 -79.3086 242° Southwest 260 299 12,000 -50 Descending Cleveland Center
Wed 01:52:50 PM 42.2706 -79.3906 240° Southwest 260 299 12,000  Level Cleveland Center
Wed 01:53:50 PM 42.2361 -79.4756 241° Southwest 265 305 12,000  Level Cleveland Center
Wed 01:54:50 PM 42.1994 -79.5631 241° Southwest 265 305 12,000  Level Cleveland Center
Wed 01:55:50 PM 42.1667 -79.6447 242° Southwest 265 305 12,000  Level Cleveland Center
Wed 01:56:50 PM 42.1278 -79.7319 239° Southwest 265 305 12,000  Level Cleveland Center
Wed 01:57:50 PM 42.0931 -79.8192 242° Southwest 265 305 12,000  Level Cleveland Center
Wed 01:58:50 PM 42.0581 -79.8981 239° Southwest 265 305 12,000  Level Cleveland Center
Wed 01:59:50 PM 42.0250 -79.9822 242° Southwest 260 299 12,000  Level Cleveland Center
Wed 02:00:51 PM 41.9900 -80.0636 240° Southwest 255 293 12,000 50 Level Cleveland Center
Wed 02:01:50 PM 41.9550 -80.1419 239° Southwest 250 288 12,100 50 Climbing Cleveland Center
Wed 02:02:50 PM 41.9219 -80.2231 241° Southwest 250 288 12,100  Level Cleveland Center
Wed 02:03:50 PM 41.8867 -80.3042 240° Southwest 250 288 12,100  Level Cleveland Center
Wed 02:04:50 PM 41.8556 -80.3769 240° Southwest 250 288 12,100  Level Cleveland Center
Wed 02:05:50 PM 41.8222 -80.4578 241° Southwest 249 287 12,100  Level Cleveland Center
Wed 02:06:50 PM 41.7869 -80.5386 240° Southwest 249 287 12,100  Level Cleveland Center
Wed 02:07:50 PM 41.7514 -80.6194 239° Southwest 249 287 12,100 -50 Level Cleveland Center
Wed 02:08:50 PM 41.7161 -80.7056 241° Southwest 249 287 12,000 -50 Descending Cleveland Center
Wed 02:09:50 PM 41.6806 -80.7861 239° Southwest 249 287 12,000 -50 Level Cleveland Center
Wed 02:10:50 PM 41.6447 -80.8694 240° Southwest 254 292 11,900 -550 Descending Cleveland Center
Wed 02:11:50 PM 41.6050 -80.9608 240° Southwest 254 292 10,900 -1,000 Descending Cleveland Center
Wed 02:12:20 PM 41.5839 -81.0050 237° Southwest 269 310 10,400 -1,000 Descending Cleveland Center
Wed 02:12:50 PM 41.5650 -81.0494 240° Southwest 265 305 9,900 -800 Descending Cleveland Center
Wed 02:13:50 PM 41.5292 -81.1294 239° Southwest 265 305 9,200 -450 Descending Cleveland Center
Wed 02:14:50 PM 41.5058 -81.2208 251° West 265 305 9,000 -160 Descending Cleveland Center
Wed 02:15:05 PM 41.5036 -81.2403 261° West 255 293 9,000 -100 Level Cleveland Center
Wed 02:15:50 PM 41.4950 -81.3122 261° West 249 287 8,900 -393 Descending Cleveland Center
Wed 02:16:06 PM 41.4925 -81.3372 262° West 250 288 8,600 -900 Descending Cleveland Center
Wed 02:16:50 PM 41.4817 -81.4092 259° West 260 299 8,000 -787 Descending Cleveland Center
Wed 02:17:07 PM 41.4772 -81.4339 257° West 264 304 7,800 -900 Descending Cleveland Center
Wed 02:17:50 PM 41.4706 -81.5031 263° West 260 299 7,100 -800 Descending Cleveland Center
Wed 02:18:07 PM 41.4683 -81.5281 263° West 259 298 7,000 -100 Descending Cleveland Center
Wed 02:18:50 PM 41.4572 -81.5944 257° West 260 299 7,000  Level Cleveland Center
Wed 02:19:57 PM 41.4231 -81.6825 243° Southwest 244 281 7,000  Level Cleveland Center
Wed 02:20:50 PM 41.3933 -81.7539 241° Southwest 249 287 7,000 -53 Level Cleveland Center
Wed 02:21:50 PM 41.3592 -81.8281 238° Southwest 249 287 6,900 -320 Descending Cleveland Center
Wed 02:22:05 PM 41.3486 -81.8444 229° Southwest 241 277 6,600 -1,440 Descending Cleveland Center
Wed 02:23:05 PM 41.3061 -81.9100 229° Southwest 237 273 5,100 -1,339 Descending Cleveland Center
Wed 02:24:06 PM 41.2719 -81.9811 237° Southwest 260 299 3,900 -984 Descending Cleveland Center
Wed 02:25:13 PM 41.3303 -81.9850 357° North 202 232 3,000 -891 Descending Cleveland Center
Wed 02:26:14 PM 41.3642 -81.9306 50° Northeast 178 205 2,000 -879 Descending Cleveland Center
Wed 02:27:09 PM 41.3833 -81.9006 50° Northeast 117 135 1,300 -764 Descending Cleveland Center

Login

Don't have an account? Register now (free) for customized features, flight alerts, and more!